Time;durP1;ratioP1;P1;durP2;ratioP2;P2;SDS_P1;SDS_P2;PMS_P1;PMS_P2;Temp;Humidity;BMP_temperature;BMP_pressure;BME280_temperature;BME280_humidity;BME280_pressure;Samples;Min_cycle;Max_cycle;Signal;HPM_P1;HPM_P2
2021/12/18 00:01:53;;;;;;;11.00;7.18;;;;;;;;;;5054337;28;20047;-71
2021/12/18 00:04:20;;;;;;;11.85;7.72;;;;;;;;;;5054331;28;20037;-75
2021/12/18 00:06:48;;;;;;;10.38;7.10;;;;;;;;;;5054263;28;20500;-73
2021/12/18 00:09:16;;;;;;;9.05;6.85;;;;;;;;;;5035923;28;20052;-73
2021/12/18 00:11:45;;;;;;;11.95;6.85;;;;;;;;;;5053831;28;20044;-71
2021/12/18 00:14:13;;;;;;;9.63;6.75;;;;;;;;;;5054118;28;20123;-75
2021/12/18 00:16:40;;;;;;;11.30;6.38;;;;;;;;;;5035677;28;20087;-73
2021/12/18 00:19:15;;;;;;;9.07;6.45;;;;;;;;;;5053682;28;20048;-75
2021/12/18 00:21:43;;;;;;;7.85;6.13;;;;;;;;;;5053769;28;20060;-73
2021/12/18 00:24:11;;;;;;;11.60;6.22;;;;;;;;;;5054153;28;20048;-75
2021/12/18 00:26:40;;;;;;;10.15;6.00;;;;;;;;;;5036493;28;20111;-73
2021/12/18 00:29:08;;;;;;;10.75;5.50;;;;;;;;;;5035718;28;20136;-75
2021/12/18 00:31:38;;;;;;;10.10;5.72;;;;;;;;;;5053909;28;20037;-73
2021/12/18 00:34:09;;;;;;;7.40;5.53;;;;;;;;;;5053452;28;20396;-72
2021/12/18 00:36:38;;;;;;;12.00;5.50;;;;;;;;;;5053564;28;20045;-73
2021/12/18 00:39:06;;;;;;;11.68;5.68;;;;;;;;;;5053539;28;20044;-75
2021/12/18 00:44:02;;;;;;;7.40;4.93;;;;;;;;;;5053281;28;20049;-71
2021/12/18 00:46:31;;;;;;;8.95;5.45;;;;;;;;;;5053394;28;20037;-71
2021/12/18 00:48:59;;;;;;;8.10;5.25;;;;;;;;;;5052976;28;20057;-73
2021/12/18 00:51:26;;;;;;;9.70;5.38;;;;;;;;;;5053519;28;20037;-71
2021/12/18 00:53:54;;;;;;;10.45;5.65;;;;;;;;;;5052861;28;20376;-71
2021/12/18 00:56:23;;;;;;;7.82;5.45;;;;;;;;;;5052870;28;20107;-73
2021/12/18 00:58:51;;;;;;;8.80;6.00;;;;;;;;;;5053178;28;20033;-71
2021/12/18 01:01:21;;;;;;;8.10;5.80;;;;;;;;;;5053194;28;20128;-73
2021/12/18 01:03:52;;;;;;;10.45;5.88;;;;;;;;;;5053553;28;20037;-73
2021/12/18 01:06:21;;;;;;;8.40;6.03;;;;;;;;;;5018472;28;20070;-71
2021/12/18 01:08:55;;;;;;;8.38;5.80;;;;;;;;;;5052877;28;20043;-74
2021/12/18 01:24:54;;;;;;;8.95;5.40;;;;;;;;;;5053083;28;20053;-72
2021/12/18 01:27:23;;;;;;;10.10;4.93;;;;;;;;;;5052968;28;20041;-75
2021/12/18 01:29:50;;;;;;;7.32;4.80;;;;;;;;;;5034583;28;20051;-75
2021/12/18 01:32:18;;;;;;;5.13;4.35;;;;;;;;;;5053248;28;20059;-72
2021/12/18 01:34:46;;;;;;;6.53;4.55;;;;;;;;;;5052225;28;20044;-72
2021/12/18 01:37:14;;;;;;;6.13;4.93;;;;;;;;;;5035158;28;20045;-75
2021/12/18 01:39:43;;;;;;;8.80;4.53;;;;;;;;;;5053444;28;20052;-70
2021/12/18 01:45:00;;;;;;;7.10;4.30;;;;;;;;;;5052843;28;20056;-72
2021/12/18 01:52:53;;;;;;;6.82;3.88;;;;;;;;;;5052704;28;20041;-72
2021/12/18 01:55:25;;;;;;;4.22;3.33;;;;;;;;;;5052928;28;20472;-71
2021/12/18 01:57:52;;;;;;;4.75;3.35;;;;;;;;;;5052602;28;20420;-72
2021/12/18 02:00:22;;;;;;;7.18;4.00;;;;;;;;;;5052916;28;20396;-72
2021/12/18 02:02:51;;;;;;;5.65;3.75;;;;;;;;;;5052670;28;20099;-74
2021/12/18 02:05:19;;;;;;;6.65;3.70;;;;;;;;;;5052333;28;20045;-70
2021/12/18 02:07:47;;;;;;;5.80;3.50;;;;;;;;;;5037392;28;20079;-71
2021/12/18 02:10:21;;;;;;;6.95;3.65;;;;;;;;;;5038237;28;20037;-73
2021/12/18 02:13:04;;;;;;;6.10;3.55;;;;;;;;;;5056677;28;20059;-75
2021/12/18 02:21:12;;;;;;;6.93;3.42;;;;;;;;;;5056634;28;20045;-73
2021/12/18 02:23:41;;;;;;;4.45;3.13;;;;;;;;;;5055904;28;20374;-75
2021/12/18 02:26:08;;;;;;;5.50;3.13;;;;;;;;;;5055900;28;20056;-72
2021/12/18 02:28:36;;;;;;;4.88;3.05;;;;;;;;;;5056054;28;20403;-75
2021/12/18 02:31:05;;;;;;;4.82;3.17;;;;;;;;;;5056065;28;20072;-72
2021/12/18 02:33:32;;;;;;;5.70;3.17;;;;;;;;;;5055969;28;20041;-73
2021/12/18 02:36:04;;;;;;;4.10;2.90;;;;;;;;;;5055596;28;20098;-73
2021/12/18 02:39:02;;;;;;;5.47;3.10;;;;;;;;;;5056313;28;20123;-71
2021/12/18 02:41:36;;;;;;;4.63;3.00;;;;;;;;;;5038239;28;20041;-71
2021/12/18 02:44:06;;;;;;;3.85;3.10;;;;;;;;;;5055496;28;20123;-74
2021/12/18 02:46:34;;;;;;;3.33;2.67;;;;;;;;;;5037428;28;20448;-75
2021/12/18 02:49:12;;;;;;;3.92;2.90;;;;;;;;;;5037549;28;20049;-71
2021/12/18 02:51:42;;;;;;;3.15;2.70;;;;;;;;;;5055895;28;20049;-72
2021/12/18 02:54:10;;;;;;;4.32;2.90;;;;;;;;;;5037707;28;20045;-71
2021/12/18 02:56:38;;;;;;;3.50;2.85;;;;;;;;;;5055761;28;20563;-71
2021/12/18 02:59:08;;;;;;;4.60;2.80;;;;;;;;;;5055293;28;20049;-75
2021/12/18 03:01:38;;;;;;;4.63;3.03;;;;;;;;;;5055641;28;20563;-72
2021/12/18 03:04:20;;;;;;;4.25;2.92;;;;;;;;;;5055249;28;20061;-74
2021/12/18 03:06:55;;;;;;;4.45;2.97;;;;;;;;;;5037484;28;20071;-71
2021/12/18 03:25:44;;;;;;;3.65;2.63;;;;;;;;;;5036935;28;20104;-73
2021/12/18 03:28:13;;;;;;;5.03;2.55;;;;;;;;;;5054714;28;20496;-74
2021/12/18 03:30:43;;;;;;;3.03;2.55;;;;;;;;;;5055075;28;20045;-75
2021/12/18 03:33:12;;;;;;;4.70;2.80;;;;;;;;;;5037550;28;20505;-73
2021/12/18 03:35:40;;;;;;;3.15;2.70;;;;;;;;;;5054807;28;20408;-73
2021/12/18 03:38:09;;;;;;;4.97;2.97;;;;;;;;;;5054897;28;20033;-73
2021/12/18 03:40:38;;;;;;;4.18;2.90;;;;;;;;;;5055027;28;20041;-72
2021/12/18 03:43:06;;;;;;;4.57;3.50;;;;;;;;;;5054749;28;20037;-72
2021/12/18 03:45:34;;;;;;;4.35;3.30;;;;;;;;;;5054498;28;20045;-71
2021/12/18 03:48:02;;;;;;;4.78;3.10;;;;;;;;;;5037021;28;20049;-72
2021/12/18 03:50:30;;;;;;;4.90;2.97;;;;;;;;;;5054539;28;20103;-72
2021/12/18 03:52:57;;;;;;;7.22;3.00;;;;;;;;;;5036947;28;20041;-74
2021/12/18 03:55:26;;;;;;;5.13;2.92;;;;;;;;;;5054513;28;20056;-73
2021/12/18 03:57:54;;;;;;;3.65;2.90;;;;;;;;;;5054453;28;20477;-70
2021/12/18 04:00:22;;;;;;;5.07;3.33;;;;;;;;;;5036769;28;20044;-72
2021/12/18 04:02:49;;;;;;;4.40;3.10;;;;;;;;;;5054553;28;20056;-72
2021/12/18 04:05:18;;;;;;;5.07;3.22;;;;;;;;;;5054173;28;20128;-72
2021/12/18 04:07:49;;;;;;;4.97;3.00;;;;;;;;;;5036643;28;20056;-75
2021/12/18 04:10:18;;;;;;;4.15;3.03;;;;;;;;;;5035812;28;20132;-72
2021/12/18 04:12:49;;;;;;;4.90;3.10;;;;;;;;;;5036338;28;20527;-71
2021/12/18 04:15:17;;;;;;;15.88;4.00;;;;;;;;;;5053890;28;20135;-73
2021/12/18 04:17:45;;;;;;;7.18;3.17;;;;;;;;;;5053953;28;20048;-71
2021/12/18 04:20:12;;;;;;;5.35;3.58;;;;;;;;;;5019905;28;20522;-72
2021/12/18 04:22:41;;;;;;;6.90;3.28;;;;;;;;;;5053501;28;20497;-74
2021/12/18 04:25:08;;;;;;;14.73;4.03;;;;;;;;;;5053543;28;20156;-73
2021/12/18 04:27:36;;;;;;;16.98;6.05;;;;;;;;;;5053818;28;20043;-74
2021/12/18 04:30:04;;;;;;;12.77;4.90;;;;;;;;;;5052872;28;20396;-73
2021/12/18 04:32:32;;;;;;;14.95;3.80;;;;;;;;;;5036243;28;20131;-74
2021/12/18 04:35:00;;;;;;;7.97;3.85;;;;;;;;;;5053384;28;20037;-72
2021/12/18 04:37:28;;;;;;;11.55;3.92;;;;;;;;;;5036034;28;20051;-73
2021/12/18 04:39:55;;;;;;;6.32;3.70;;;;;;;;;;5053761;28;20037;-72
2021/12/18 04:42:27;;;;;;;11.02;3.72;;;;;;;;;;5053406;28;20052;-72
2021/12/18 04:44:54;;;;;;;9.23;5.28;;;;;;;;;;5053295;28;20065;-75
2021/12/18 04:47:22;;;;;;;9.93;5.57;;;;;;;;;;5035224;28;20040;-74
2021/12/18 04:49:49;;;;;;;8.38;5.10;;;;;;;;;;5053100;28;20049;-71
2021/12/18 04:52:18;;;;;;;8.45;3.90;;;;;;;;;;5053382;28;20041;-74
2021/12/18 04:54:45;;;;;;;7.47;4.47;;;;;;;;;;5035185;28;20071;-71
2021/12/18 04:57:14;;;;;;;9.45;3.58;;;;;;;;;;5036031;28;20403;-72
2021/12/18 04:59:44;;;;;;;5.10;3.40;;;;;;;;;;5053295;28;20462;-72
2021/12/18 05:02:16;;;;;;;5.57;3.38;;;;;;;;;;5053262;28;20044;-72
2021/12/18 05:04:43;;;;;;;4.60;2.50;;;;;;;;;;5053065;28;20037;-75
2021/12/18 05:07:12;;;;;;;3.70;2.65;;;;;;;;;;5053078;28;20112;-71
2021/12/18 05:09:40;;;;;;;7.75;2.70;;;;;;;;;;5052689;28;20037;-73
2021/12/18 05:12:09;;;;;;;4.32;2.70;;;;;;;;;;5053074;28;20468;-72
2021/12/18 05:14:38;;;;;;;6.18;2.80;;;;;;;;;;5053141;28;20132;-71
2021/12/18 05:17:06;;;;;;;7.00;2.72;;;;;;;;;;5053261;28;20041;-74
2021/12/18 05:19:35;;;;;;;6.18;3.10;;;;;;;;;;5052725;28;20049;-71
2021/12/18 05:22:04;;;;;;;4.45;3.15;;;;;;;;;;5052430;28;20435;-75
2021/12/18 05:24:34;;;;;;;8.65;3.78;;;;;;;;;;5052865;28;20128;-73
2021/12/18 05:27:03;;;;;;;8.13;3.53;;;;;;;;;;5052805;28;20045;-73
2021/12/18 05:29:30;;;;;;;7.95;3.38;;;;;;;;;;5052942;28;20033;-71
2021/12/18 05:31:58;;;;;;;4.97;2.97;;;;;;;;;;5052587;28;20052;-71
2021/12/18 05:34:32;;;;;;;8.43;3.33;;;;;;;;;;5052885;28;20128;-73
2021/12/18 05:39:29;;;;;;;3.70;2.78;;;;;;;;;;5052349;28;20041;-71
2021/12/18 05:41:57;;;;;;;6.32;2.97;;;;;;;;;;5038196;28;20491;-73
2021/12/18 05:44:27;;;;;;;4.50;2.63;;;;;;;;;;5056147;28;20048;-73
2021/12/18 05:46:56;;;;;;;6.70;3.45;;;;;;;;;;5055740;28;20045;-71
2021/12/18 05:49:23;;;;;;;4.72;2.60;;;;;;;;;;5038618;28;20108;-74
2021/12/18 05:51:51;;;;;;;15.90;9.07;;;;;;;;;;5056529;28;20047;-73
2021/12/18 05:54:19;;;;;;;3.70;2.65;;;;;;;;;;5022064;28;20045;-70
2021/12/18 05:56:47;;;;;;;4.20;2.47;;;;;;;;;;5056378;28;20067;-72
2021/12/18 05:59:16;;;;;;;6.18;2.53;;;;;;;;;;5056117;28;20143;-72
2021/12/18 06:01:46;;;;;;;5.07;2.65;;;;;;;;;;5034118;28;20140;-75
2021/12/18 06:04:13;;;;;;;7.75;3.22;;;;;;;;;;5044845;28;20033;-70
2021/12/18 06:06:41;;;;;;;4.43;2.67;;;;;;;;;;5056003;28;20045;-72
2021/12/18 06:09:11;;;;;;;4.80;2.25;;;;;;;;;;5056094;28;20045;-70
2021/12/18 06:11:41;;;;;;;2.20;2.00;;;;;;;;;;5055991;28;20071;-70
2021/12/18 06:14:09;;;;;;;7.45;2.20;;;;;;;;;;5056126;28;20072;-72
2021/12/18 06:16:36;;;;;;;3.45;2.08;;;;;;;;;;5038407;28;20164;-70
2021/12/18 06:19:04;;;;;;;4.65;2.40;;;;;;;;;;5056517;28;20120;-76
2021/12/18 06:21:33;;;;;;;5.93;2.35;;;;;;;;;;5038419;28;20480;-70
2021/12/18 06:24:02;;;;;;;4.43;1.95;;;;;;;;;;5054595;28;20040;-70
2021/12/18 06:26:30;;;;;;;3.45;2.17;;;;;;;;;;5044205;28;20037;-71
2021/12/18 06:28:58;;;;;;;7.38;2.20;;;;;;;;;;5021573;28;20037;-69
2021/12/18 06:31:31;;;;;;;3.28;2.25;;;;;;;;;;5037013;28;20049;-70
2021/12/18 06:34:00;;;;;;;5.35;2.30;;;;;;;;;;5034093;28;20049;-70
2021/12/18 06:36:32;;;;;;;5.13;2.20;;;;;;;;;;5035553;28;20473;-70
2021/12/18 06:39:00;;;;;;;4.32;2.13;;;;;;;;;;5035592;28;20041;-73
2021/12/18 06:41:28;;;;;;;3.20;2.15;;;;;;;;;;5038438;28;20403;-73
2021/12/18 06:43:56;;;;;;;3.92;2.47;;;;;;;;;;5027308;28;20041;-70
2021/12/18 06:46:24;;;;;;;4.82;2.60;;;;;;;;;;5018562;28;20378;-70
2021/12/18 06:48:56;;;;;;;5.85;3.00;;;;;;;;;;5043679;28;20512;-72
2021/12/18 06:51:24;;;;;;;10.98;2.88;;;;;;;;;;5017786;28;20160;-70
2021/12/18 06:53:52;;;;;;;6.13;2.70;;;;;;;;;;5016447;28;20396;-69
2021/12/18 06:56:20;;;;;;;4.45;2.72;;;;;;;;;;5035298;28;20067;-70
2021/12/18 06:58:49;;;;;;;6.57;3.00;;;;;;;;;;5017858;28;20213;-73
2021/12/18 07:01:18;;;;;;;12.18;2.90;;;;;;;;;;5017515;28;20049;-72
2021/12/18 07:03:45;;;;;;;10.57;2.90;;;;;;;;;;5035994;28;20122;-71
2021/12/18 07:06:16;;;;;;;10.75;3.05;;;;;;;;;;5031025;28;20048;-72
2021/12/18 07:08:44;;;;;;;7.88;2.50;;;;;;;;;;5017087;28;20136;-71
2021/12/18 07:11:12;;;;;;;14.27;3.33;;;;;;;;;;5017296;28;20092;-71
2021/12/18 07:13:40;;;;;;;12.40;3.40;;;;;;;;;;5033587;28;20045;-71
2021/12/18 07:16:07;;;;;;;9.77;3.40;;;;;;;;;;5034731;28;20042;-74
2021/12/18 07:18:34;;;;;;;14.40;3.47;;;;;;;;;;5034746;28;20046;-72
2021/12/18 07:21:02;;;;;;;7.20;2.95;;;;;;;;;;5017361;28;20095;-70
2021/12/18 07:23:30;;;;;;;3.60;2.58;;;;;;;;;;5034007;28;20509;-71
2021/12/18 07:25:58;;;;;;;18.02;3.03;;;;;;;;;;5018254;28;20037;-72
2021/12/18 07:28:32;;;;;;;5.47;2.60;;;;;;;;;;5048305;28;20411;-73
2021/12/18 07:31:00;;;;;;;5.10;2.58;;;;;;;;;;5034159;28;20068;-71
2021/12/18 07:33:27;;;;;;;3.60;2.53;;;;;;;;;;5023484;28;20445;-70
2021/12/18 07:35:56;;;;;;;8.07;2.20;;;;;;;;;;5033966;28;20037;-70
2021/12/18 07:38:23;;;;;;;9.38;2.42;;;;;;;;;;5040917;28;20400;-72
2021/12/18 07:40:52;;;;;;;5.25;2.42;;;;;;;;;;5038542;28;20041;-72
2021/12/18 07:43:19;;;;;;;4.97;2.20;;;;;;;;;;5016522;28;20503;-72
2021/12/18 07:45:47;;;;;;;18.65;2.92;;;;;;;;;;5039883;28;20121;-71
2021/12/18 07:48:14;;;;;;;7.03;2.38;;;;;;;;;;5049329;28;20049;-72
2021/12/18 07:50:42;;;;;;;11.90;2.47;;;;;;;;;;5034218;28;20128;-74
2021/12/18 07:53:13;;;;;;;10.38;2.38;;;;;;;;;;5034007;28;20050;-71
2021/12/18 07:55:40;;;;;;;60.42;5.53;;;;;;;;;;5030586;28;20041;-71
2021/12/18 07:58:08;;;;;;;16.63;2.70;;;;;;;;;;5035723;28;20048;-71
2021/12/18 08:00:35;;;;;;;16.90;2.95;;;;;;;;;;5033665;28;20042;-73
2021/12/18 08:03:03;;;;;;;10.77;2.20;;;;;;;;;;5025080;28;20048;-70
2021/12/18 08:05:31;;;;;;;7.22;2.28;;;;;;;;;;5023513;28;20428;-74
2021/12/18 08:07:58;;;;;;;3.90;2.42;;;;;;;;;;5016151;28;20112;-71
2021/12/18 08:10:26;;;;;;;9.27;3.20;;;;;;;;;;5036479;28;20049;-74
2021/12/18 08:12:54;;;;;;;8.80;3.28;;;;;;;;;;5029553;28;20049;-72
2021/12/18 08:15:23;;;;;;;5.60;2.70;;;;;;;;;;4999555;28;20047;-70
2021/12/18 08:17:51;;;;;;;52.50;4.00;;;;;;;;;;5034049;28;20128;-71
2021/12/18 08:20:19;;;;;;;31.40;2.72;;;;;;;;;;5033533;28;20053;-74
2021/12/18 08:22:48;;;;;;;17.58;3.47;;;;;;;;;;5033065;28;20045;-72
2021/12/18 08:25:15;;;;;;;7.70;3.10;;;;;;;;;;5033573;28;20128;-71
2021/12/18 08:27:46;;;;;;;19.67;2.63;;;;;;;;;;5032040;28;20041;-68
2021/12/18 08:30:14;;;;;;;7.07;2.53;;;;;;;;;;5033292;28;20095;-71
2021/12/18 08:32:43;;;;;;;11.35;3.20;;;;;;;;;;5033117;28;20105;-70
2021/12/18 08:35:11;;;;;;;13.98;2.60;;;;;;;;;;5033150;28;20049;-71
2021/12/18 08:37:39;;;;;;;5.90;2.30;;;;;;;;;;5033452;28;20430;-68
2021/12/18 08:40:07;;;;;;;9.88;3.28;;;;;;;;;;5032909;28;20037;-70
2021/12/18 08:42:35;;;;;;;12.43;2.70;;;;;;;;;;5051841;28;20041;-71
2021/12/18 08:45:02;;;;;;;14.75;2.88;;;;;;;;;;5047111;28;20137;-72
2021/12/18 08:47:31;;;;;;;6.93;2.80;;;;;;;;;;5032812;28;20524;-78
2021/12/18 08:50:00;;;;;;;10.02;3.10;;;;;;;;;;5032991;28;20450;-72
2021/12/18 08:52:27;;;;;;;15.80;3.90;;;;;;;;;;5048996;28;20052;-71
2021/12/18 08:54:55;;;;;;;9.07;4.13;;;;;;;;;;5032541;28;20047;-70
2021/12/18 08:57:23;;;;;;;7.70;4.28;;;;;;;;;;5032906;28;20136;-71
2021/12/18 08:59:50;;;;;;;10.30;3.67;;;;;;;;;;5032857;28;20045;-70
2021/12/18 09:02:19;;;;;;;9.02;3.88;;;;;;;;;;5033200;28;20124;-74
2021/12/18 09:04:48;;;;;;;6.57;3.70;;;;;;;;;;5032599;28;20034;-72
2021/12/18 09:07:16;;;;;;;9.52;2.70;;;;;;;;;;5032671;28;20040;-75
2021/12/18 09:09:43;;;;;;;10.43;2.60;;;;;;;;;;5025403;28;20032;-71
2021/12/18 09:12:12;;;;;;;12.50;2.55;;;;;;;;;;5034999;28;20037;-71
2021/12/18 09:14:39;;;;;;;8.55;2.20;;;;;;;;;;5035150;28;20049;-70
2021/12/18 09:17:07;;;;;;;11.90;2.45;;;;;;;;;;5052219;28;20044;-70
2021/12/18 09:19:36;;;;;;;10.60;2.83;;;;;;;;;;5051720;28;20535;-69
2021/12/18 09:22:06;;;;;;;27.88;3.50;;;;;;;;;;5052360;28;20049;-72
2021/12/18 09:24:34;;;;;;;25.88;4.18;;;;;;;;;;5052366;28;20511;-71
2021/12/18 09:27:02;;;;;;;14.10;2.40;;;;;;;;;;5052896;28;20044;-70
2021/12/18 09:29:30;;;;;;;35.78;3.08;;;;;;;;;;5052822;28;20048;-73
2021/12/18 09:31:57;;;;;;;58.00;3.42;;;;;;;;;;5053082;28;20033;-70
2021/12/18 09:34:28;;;;;;;26.40;2.45;;;;;;;;;;5052725;28;20051;-70
2021/12/18 09:36:55;;;;;;;43.08;2.72;;;;;;;;;;5052996;28;20045;-72
2021/12/18 09:39:24;;;;;;;26.85;2.92;;;;;;;;;;5052780;28;20045;-71
2021/12/18 09:41:52;;;;;;;35.40;2.47;;;;;;;;;;5052628;28;20041;-71
2021/12/18 09:44:27;;;;;;;133.95;6.65;;;;;;;;;;5052773;28;20079;-70
2021/12/18 09:46:55;;;;;;;93.97;5.68;;;;;;;;;;5049544;28;20048;-70
2021/12/18 09:49:22;;;;;;;63.20;3.58;;;;;;;;;;5034319;28;20045;-72
2021/12/18 09:51:50;;;;;;;20.75;2.90;;;;;;;;;;5052388;28;20041;-71
2021/12/18 09:54:19;;;;;;;12.30;1.48;;;;;;;;;;5052477;28;20037;-71
2021/12/18 09:56:46;;;;;;;11.18;1.80;;;;;;;;;;5052370;28;20079;-71
2021/12/18 09:59:14;;;;;;;28.42;2.45;;;;;;;;;;5052455;28;20362;-70
2021/12/18 10:01:42;;;;;;;17.73;2.08;;;;;;;;;;5052661;28;20049;-70
2021/12/18 10:04:42;;;;;;;12.90;1.55;;;;;;;;;;5052217;28;20056;-70
2021/12/18 10:07:19;;;;;;;21.02;1.90;;;;;;;;;;4999411;28;20072;-71
2021/12/18 10:09:47;;;;;;;31.63;2.78;;;;;;;;;;5052285;28;20061;-71
2021/12/18 10:12:19;;;;;;;28.58;1.92;;;;;;;;;;5052116;28;20044;-70
2021/12/18 10:14:48;;;;;;;29.50;2.38;;;;;;;;;;5052331;28;20037;-70
2021/12/18 10:17:21;;;;;;;22.25;2.35;;;;;;;;;;5052265;28;20051;-72
2021/12/18 10:19:48;;;;;;;;;;;;;;;;;;5052838;28;20124;-70
2021/12/18 10:22:16;;;;;;;30.55;2.72;;;;;;;;;;5052548;28;19921;-70
2021/12/18 10:24:44;;;;;;;24.05;2.28;;;;;;;;;;5051762;28;20492;-71
2021/12/18 10:27:20;;;;;;;17.83;1.75;;;;;;;;;;5034297;28;20045;-72
2021/12/18 10:29:48;;;;;;;65.93;4.25;;;;;;;;;;5056034;28;20045;-71
2021/12/18 10:32:19;;;;;;;6.95;1.60;;;;;;;;;;5056397;28;20052;-70
2021/12/18 10:35:05;;;;;;;3.97;1.20;;;;;;;;;;5055789;28;20127;-71
2021/12/18 10:37:34;;;;;;;6.45;1.40;;;;;;;;;;5055802;28;20048;-73
2021/12/18 10:40:11;;;;;;;2.30;1.05;;;;;;;;;;5056040;28;20051;-71
2021/12/18 10:42:42;;;;;;;5.65;1.48;;;;;;;;;;5055484;28;20052;-71
2021/12/18 10:45:26;;;;;;;5.03;2.08;;;;;;;;;;5055288;28;20060;-71
2021/12/18 10:47:56;;;;;;;4.53;1.52;;;;;;;;;;5083057;23;20081;-74
2021/12/18 10:50:43;;;;;;;9.48;1.55;;;;;;;;;;5015612;28;20042;-75
2021/12/18 10:53:15;;;;;;;5.05;1.55;;;;;;;;;;5014393;28;20133;-74
2021/12/18 10:55:43;;;;;;;6.75;1.63;;;;;;;;;;5017716;28;20603;-74
2021/12/18 10:58:12;;;;;;;33.25;4.57;;;;;;;;;;5017330;28;20037;-76
2021/12/18 11:00:52;;;;;;;5.30;1.70;;;;;;;;;;5034842;28;20052;-74
2021/12/18 11:03:20;;;;;;;6.28;1.98;;;;;;;;;;5017349;28;20416;-76
2021/12/18 11:06:04;;;;;;;6.22;1.83;;;;;;;;;;5035083;28;20048;-74
2021/12/18 11:08:33;;;;;;;5.68;2.00;;;;;;;;;;5017397;28;20055;-74
2021/12/18 11:13:53;;;;;;;;;;;;;;;;;;4991135;28;20056;-73
2021/12/18 11:16:22;;;;;;;7.00;2.00;;;;;;;;;;5034988;28;19967;-76
2021/12/18 11:18:49;;;;;;;12.13;2.10;;;;;;;;;;5034635;28;20042;-76
2021/12/18 11:21:17;;;;;;;25.02;2.65;;;;;;;;;;5034496;28;20041;-76
2021/12/18 11:23:49;;;;;;;65.00;4.82;;;;;;;;;;5016000;28;20053;-72
2021/12/18 11:26:18;;;;;;;33.70;3.05;;;;;;;;;;5034415;28;20033;-72
2021/12/18 11:28:48;;;;;;;23.70;2.50;;;;;;;;;;5034441;28;20038;-74
2021/12/18 11:31:18;;;;;;;30.10;2.15;;;;;;;;;;5034537;28;20073;-74
2021/12/18 11:33:46;;;;;;;41.28;3.83;;;;;;;;;;5033956;28;20033;-73
2021/12/18 11:36:13;;;;;;;42.55;3.17;;;;;;;;;;5033952;28;20504;-75
2021/12/18 11:38:42;;;;;;;29.83;2.83;;;;;;;;;;5033890;28;20497;-72
2021/12/18 11:41:17;;;;;;;66.57;4.13;;;;;;;;;;5034348;28;20049;-72
2021/12/18 11:43:46;;;;;;;27.38;2.45;;;;;;;;;;5034255;28;20049;-72
2021/12/18 11:46:30;;;;;;;18.60;2.53;;;;;;;;;;5034071;28;20048;-74
2021/12/18 11:49:08;;;;;;;34.30;2.60;;;;;;;;;;5033832;28;20049;-73
2021/12/18 11:51:36;;;;;;;23.30;2.97;;;;;;;;;;5016486;28;20132;-74
2021/12/18 11:54:24;;;;;;;12.20;1.90;;;;;;;;;;5034064;28;20037;-76
2021/12/18 11:56:52;;;;;;;8.70;1.40;;;;;;;;;;5016104;28;20420;-76
2021/12/18 11:59:39;;;;;;;18.50;1.52;;;;;;;;;;5033727;28;20049;-72
2021/12/18 12:02:07;;;;;;;26.13;2.08;;;;;;;;;;5033518;28;20041;-72
2021/12/18 12:04:58;;;;;;;50.40;2.88;;;;;;;;;;5033866;28;20514;-72
2021/12/18 12:07:27;;;;;;;33.97;2.78;;;;;;;;;;5011110;28;20072;-72
2021/12/18 12:10:22;;;;;;;19.67;2.13;;;;;;;;;;5033458;28;20108;-71
2021/12/18 12:12:58;;;;;;;29.45;2.40;;;;;;;;;;5033155;28;20042;-72
2021/12/18 12:15:27;;;;;;;9.02;1.60;;;;;;;;;;5033530;28;20534;-75
2021/12/18 12:17:57;;;;;;;14.30;1.45;;;;;;;;;;5033569;28;20068;-75
2021/12/18 12:20:32;;;;;;;9.70;1.65;;;;;;;;;;4999576;28;20073;-74
2021/12/18 12:23:02;;;;;;;11.82;2.15;;;;;;;;;;5033353;28;20076;-73
2021/12/18 12:25:40;;;;;;;38.22;2.17;;;;;;;;;;5033249;28;20045;-72
2021/12/18 12:28:13;;;;;;;14.13;2.00;;;;;;;;;;5033517;28;20382;-74
2021/12/18 12:30:43;;;;;;;;;;;;;;;;;;5016047;28;20073;-74
2021/12/18 12:33:13;;;;;;;30.50;2.13;;;;;;;;;;5031993;28;19921;-75
2021/12/18 12:36:07;;;;;;;25.67;2.80;;;;;;;;;;5031883;28;20140;-72
2021/12/18 12:38:41;;;;;;;13.88;2.05;;;;;;;;;;4998783;28;20131;-74
2021/12/18 12:41:25;;;;;;;18.85;1.80;;;;;;;;;;5032559;28;20427;-74
2021/12/18 12:43:53;;;;;;;18.35;2.00;;;;;;;;;;5033647;28;20128;-75
2021/12/18 12:46:21;;;;;;;25.13;2.47;;;;;;;;;;5031699;28;20127;-72
2021/12/18 12:48:59;;;;;;;50.38;2.53;;;;;;;;;;5015114;28;20045;-74
2021/12/18 12:51:48;;;;;;;17.85;2.20;;;;;;;;;;5032482;28;20505;-73
2021/12/18 12:54:34;;;;;;;16.02;1.98;;;;;;;;;;5025859;28;20053;-74
2021/12/18 12:57:22;;;;;;;27.15;1.73;;;;;;;;;;5031557;28;20046;-74
2021/12/18 12:59:49;;;;;;;9.98;1.60;;;;;;;;;;5015039;28;20456;-72
2021/12/18 13:02:17;;;;;;;13.48;1.60;;;;;;;;;;5033030;28;20048;-72
2021/12/18 13:04:45;;;;;;;17.15;1.98;;;;;;;;;;5015121;28;20095;-73
2021/12/18 13:07:12;;;;;;;11.25;1.58;;;;;;;;;;5032798;28;20040;-73
2021/12/18 13:09:46;;;;;;;8.30;1.15;;;;;;;;;;5032719;28;20408;-75
2021/12/18 13:12:14;;;;;;;14.30;1.90;;;;;;;;;;5014798;28;20045;-76
2021/12/18 13:14:43;;;;;;;4.78;1.92;;;;;;;;;;5031689;28;20477;-73
2021/12/18 13:17:21;;;;;;;11.13;2.40;;;;;;;;;;5032692;28;20038;-73
2021/12/18 13:19:55;;;;;;;16.80;2.20;;;;;;;;;;5032837;28;20041;-75
2021/12/18 13:22:28;;;;;;;8.88;1.83;;;;;;;;;;5032876;28;20045;-73
2021/12/18 13:25:07;;;;;;;7.65;1.63;;;;;;;;;;5014926;28;20046;-73
2021/12/18 13:27:36;;;;;;;4.75;1.58;;;;;;;;;;5032789;28;20125;-73
2021/12/18 13:30:09;;;;;;;8.90;1.38;;;;;;;;;;5033013;28;20108;-72
2021/12/18 13:32:38;;;;;;;5.65;1.35;;;;;;;;;;5014797;28;20137;-73
2021/12/18 13:35:17;;;;;;;12.45;1.50;;;;;;;;;;5032303;28;20041;-72
2021/12/18 13:37:57;;;;;;;5.97;1.10;;;;;;;;;;5032724;28;20075;-74
2021/12/18 13:40:25;;;;;;;8.02;1.50;;;;;;;;;;5032563;28;20120;-72
2021/12/18 13:43:11;;;;;;;6.00;1.17;;;;;;;;;;5031365;28;20049;-75
2021/12/18 13:45:54;;;;;;;18.42;1.40;;;;;;;;;;5031115;28;20417;-75
2021/12/18 13:48:26;;;;;;;5.57;0.90;;;;;;;;;;5014699;28;20041;-75
2021/12/18 13:50:56;;;;;;;4.57;1.00;;;;;;;;;;5031226;28;20045;-75
2021/12/18 13:53:25;;;;;;;4.28;1.10;;;;;;;;;;5014983;28;20416;-72
2021/12/18 13:55:55;;;;;;;6.85;1.20;;;;;;;;;;5032550;28;20546;-75
2021/12/18 13:58:28;;;;;;;6.78;1.20;;;;;;;;;;5032200;28;20560;-72
2021/12/18 14:00:58;;;;;;;8.88;1.90;;;;;;;;;;5012681;28;20049;-75
2021/12/18 14:03:28;;;;;;;4.82;0.93;;;;;;;;;;5036177;28;20087;-72
2021/12/18 14:05:58;;;;;;;8.48;0.90;;;;;;;;;;5034825;28;20071;-75
2021/12/18 14:08:26;;;;;;;5.55;0.70;;;;;;;;;;5036324;28;20037;-72
2021/12/18 14:10:53;;;;;;;25.65;1.42;;;;;;;;;;5035814;28;20057;-72
2021/12/18 14:13:21;;;;;;;20.40;1.40;;;;;;;;;;5036204;28;20481;-72
2021/12/18 14:15:48;;;;;;;12.02;1.17;;;;;;;;;;5036134;28;20111;-74
2021/12/18 14:18:36;;;;;;;3.75;0.90;;;;;;;;;;5034671;28;20042;-75
2021/12/18 14:21:05;;;;;;;6.72;0.85;;;;;;;;;;5018490;28;20041;-74
2021/12/18 14:23:42;;;;;;;5.72;0.88;;;;;;;;;;5035498;28;20488;-73
2021/12/18 14:26:30;;;;;;;2.17;0.75;;;;;;;;;;5035860;28;20042;-72
2021/12/18 14:28:59;;;;;;;2.03;0.60;;;;;;;;;;5017889;28;20040;-74
2021/12/18 14:31:33;;;;;;;2.70;0.90;;;;;;;;;;5035751;28;20074;-72
2021/12/18 14:34:03;;;;;;;4.13;0.88;;;;;;;;;;5017741;28;20376;-74
2021/12/18 14:36:43;;;;;;;3.10;1.10;;;;;;;;;;5033725;28;20132;-75
2021/12/18 14:39:40;;;;;;;3.33;1.20;;;;;;;;;;5035647;28;20128;-71
2021/12/18 14:42:32;;;;;;;1.80;0.65;;;;;;;;;;5006966;28;20404;-72
2021/12/18 14:45:01;;;;;;;3.42;1.10;;;;;;;;;;5034208;28;20389;-72
2021/12/18 14:47:32;;;;;;;3.33;1.10;;;;;;;;;;5017680;28;20057;-74
2021/12/18 14:50:00;;;;;;;4.45;1.23;;;;;;;;;;5018060;28;20050;-74
2021/12/18 14:52:28;;;;;;;8.38;1.50;;;;;;;;;;5035396;28;20048;-71
2021/12/18 14:54:58;;;;;;;2.67;1.25;;;;;;;;;;5035407;28;20041;-71
2021/12/18 14:57:27;;;;;;;6.78;1.30;;;;;;;;;;5017601;28;20555;-71
2021/12/18 15:00:15;;;;;;;3.08;1.25;;;;;;;;;;5033400;28;20053;-72
2021/12/18 15:03:21;;;;;;;2.55;1.40;;;;;;;;;;5035116;28;20051;-75
2021/12/18 15:05:56;;;;;;;5.38;1.48;;;;;;;;;;4954854;29;20039;-71
2021/12/18 15:09:03;;;;;;;1.45;1.02;;;;;;;;;;4954600;29;20061;-72
2021/12/18 15:11:29;;;;;;;5.68;1.52;;;;;;;;;;4953577;28;20121;-74
2021/12/18 15:13:56;;;;;;;3.03;1.25;;;;;;;;;;4953712;28;20526;-72
2021/12/18 15:16:24;;;;;;;2.72;1.20;;;;;;;;;;4954543;29;20051;-74
2021/12/18 15:18:52;;;;;;;3.17;1.30;;;;;;;;;;4954646;29;20051;-71
2021/12/18 15:21:21;;;;;;;2.92;1.10;;;;;;;;;;4954273;29;20053;-74
2021/12/18 15:23:49;;;;;;;1.02;0.93;;;;;;;;;;4954346;29;20059;-71
2021/12/18 15:26:17;;;;;;;2.03;0.85;;;;;;;;;;4954233;29;20532;-72
2021/12/18 15:28:44;;;;;;;2.40;0.95;;;;;;;;;;4953272;29;20426;-78
2021/12/18 15:31:16;;;;;;;3.90;1.20;;;;;;;;;;4953777;29;20055;-78
2021/12/18 15:33:43;;;;;;;1.85;1.00;;;;;;;;;;4953754;29;20051;-77
2021/12/18 15:36:14;;;;;;;3.75;1.60;;;;;;;;;;4976753;28;20073;-74
2021/12/18 15:38:44;;;;;;;4.93;1.45;;;;;;;;;;5034029;28;20041;-78
2021/12/18 15:41:20;;;;;;;1.95;1.20;;;;;;;;;;5032322;28;20049;-74
2021/12/18 15:43:48;;;;;;;3.92;1.30;;;;;;;;;;5015884;28;20072;-74
2021/12/18 15:46:15;;;;;;;6.63;2.45;;;;;;;;;;5016062;28;20037;-78
2021/12/18 15:48:45;;;;;;;3.15;1.25;;;;;;;;;;5015798;28;20055;-75
2021/12/18 15:51:14;;;;;;;1.70;1.30;;;;;;;;;;5016071;28;20124;-77